createdAt,value
2022-10-10T00:00:22.435Z,99545.19
2022-10-10T00:03:10.239Z,99540.94
2022-10-10T00:05:58.941Z,99534.91
2022-10-10T00:08:47.236Z,99549.56
2022-10-10T00:11:35.122Z,99546.97
2022-10-10T00:14:22.497Z,99546.16
2022-10-10T00:17:09.861Z,99549.81
2022-10-10T00:19:57.128Z,99545.84
2022-10-10T00:22:46.049Z,99555.75
2022-10-10T00:25:33.788Z,99553.38
2022-10-10T00:28:21.498Z,99550.78
2022-10-10T00:31:10.222Z,99547.59
2022-10-10T00:33:57.716Z,99541.28
2022-10-10T00:36:45.199Z,99553.00
2022-10-10T00:39:33.937Z,99546.94
2022-10-10T00:42:21.608Z,99555.25
2022-10-10T00:45:32.064Z,99556.69
2022-10-10T00:48:24.153Z,99544.34
2022-10-10T00:51:15.016Z,99553.41
2022-10-10T00:54:07.732Z,99550.81
2022-10-10T00:57:00.259Z,99552.88
2022-10-10T00:59:48.412Z,99549.22
2022-10-10T01:02:35.785Z,99554.00
2022-10-10T01:05:23.407Z,99546.19
2022-10-10T01:08:11.717Z,99540.25
2022-10-10T01:11:17.227Z,99540.25
2022-10-10T01:14:19.279Z,99541.25
2022-10-10T01:17:15.413Z,99539.69
2022-10-10T01:20:46.151Z,99532.00
2022-10-10T01:24:23.619Z,99542.59
2022-10-10T01:27:27.537Z,99535.00
2022-10-10T01:30:23.528Z,99534.94
2022-10-10T01:33:16.300Z,99535.94
2022-10-10T01:36:10.618Z,99529.72
2022-10-10T01:39:05.645Z,99531.22
2022-10-10T01:42:01.854Z,99532.81
2022-10-10T01:44:53.826Z,99538.03
2022-10-10T01:47:42.976Z,99525.22
2022-10-10T01:50:35.156Z,99529.63
2022-10-10T01:53:31.564Z,99516.81
2022-10-10T01:56:29.008Z,99526.63
2022-10-10T01:59:36.745Z,99517.94
2022-10-10T02:02:38.653Z,99523.38
2022-10-10T02:05:36.256Z,99523.09
2022-10-10T02:08:31.684Z,99519.69
2022-10-10T02:11:19.452Z,99519.91
2022-10-10T02:14:15.190Z,99525.38
2022-10-10T02:17:05.372Z,99519.84
2022-10-10T02:19:56.754Z,99515.88
2022-10-10T02:22:47.433Z,99517.16
2022-10-10T02:25:40.948Z,99513.44
2022-10-10T02:28:36.462Z,99505.28
2022-10-10T02:31:34.504Z,99502.91
2022-10-10T02:34:26.603Z,99509.16
2022-10-10T02:37:17.187Z,99514.38
2022-10-10T02:40:10.134Z,99513.84
2022-10-10T02:43:00.882Z,99518.72
2022-10-10T02:45:48.867Z,99518.66
2022-10-10T02:48:36.431Z,99506.09
2022-10-10T02:51:26.505Z,99514.16
2022-10-10T02:54:16.112Z,99506.78
2022-10-10T02:57:04.832Z,99505.75
2022-10-10T02:59:52.405Z,99498.97
2022-10-10T03:02:39.912Z,99498.97
2022-10-10T03:05:27.567Z,99501.81
2022-10-10T03:08:14.848Z,99501.00
2022-10-10T03:11:03.380Z,99503.06
2022-10-10T03:13:52.299Z,99509.53
2022-10-10T03:16:39.883Z,99505.59
2022-10-10T03:19:27.904Z,99500.31
2022-10-10T03:22:15.544Z,99504.94
2022-10-10T03:25:02.883Z,99515.28
2022-10-10T03:27:50.412Z,99515.50
2022-10-10T03:30:40.656Z,99511.53
2022-10-10T03:33:29.245Z,99505.44
2022-10-10T03:36:17.645Z,99514.97
2022-10-10T03:39:05.727Z,99517.81
2022-10-10T03:41:53.324Z,99511.84
2022-10-10T03:44:40.702Z,99517.06
2022-10-10T03:47:29.528Z,99512.59
2022-10-10T03:50:17.319Z,99516.81
2022-10-10T03:53:04.991Z,99520.19
2022-10-10T03:55:54.244Z,99520.19
2022-10-10T03:58:41.484Z,99511.84
2022-10-10T04:01:30.065Z,99509.94
2022-10-10T04:04:18.904Z,99506.44
2022-10-10T04:07:06.104Z,99504.75
2022-10-10T04:09:53.793Z,99508.75
2022-10-10T04:12:41.251Z,99504.00
2022-10-10T04:15:28.704Z,99511.81
2022-10-10T04:18:16.272Z,99509.78
2022-10-10T04:21:06.407Z,99507.97
2022-10-10T04:23:53.913Z,99507.75
2022-10-10T04:26:41.091Z,99511.94
2022-10-10T04:29:28.368Z,99513.03
2022-10-10T04:32:15.628Z,99511.47
2022-10-10T04:35:03.051Z,99505.44
2022-10-10T04:37:51.612Z,99516.69
2022-10-10T04:40:39.366Z,99505.13
2022-10-10T04:43:26.729Z,99507.19
2022-10-10T04:46:14.440Z,99507.63
2022-10-10T04:49:01.873Z,99513.75
2022-10-10T04:51:49.287Z,99508.94
2022-10-10T04:54:38.516Z,99518.47
2022-10-10T04:57:25.918Z,99514.97
2022-10-10T05:00:14.598Z,99509.19
2022-10-10T05:03:01.789Z,99510.53
2022-10-10T05:05:49.557Z,99512.44
2022-10-10T05:08:36.950Z,99514.38
2022-10-10T05:11:25.774Z,99525.13
2022-10-10T05:14:13.318Z,99525.66
2022-10-10T05:17:00.635Z,99524.63
2022-10-10T05:19:47.935Z,99518.66
2022-10-10T05:22:35.691Z,99524.63
2022-10-10T05:25:23.298Z,99523.88
2022-10-10T05:28:12.091Z,99521.25
2022-10-10T05:30:59.781Z,99518.31
2022-10-10T05:33:47.023Z,99513.47
2022-10-10T05:36:34.322Z,99529.47
2022-10-10T05:39:21.819Z,99526.28
2022-10-10T05:42:10.654Z,99537.50
2022-10-10T05:44:59.529Z,99531.28
2022-10-10T05:47:46.997Z,99524.00
2022-10-10T05:50:39.449Z,99536.25
2022-10-10T05:53:29.646Z,99533.97
2022-10-10T05:56:17.453Z,99535.34
2022-10-10T05:59:05.006Z,99540.06
2022-10-10T06:01:53.519Z,99538.84
2022-10-10T06:04:23.104Z,99534.97
2022-10-10T06:06:52.217Z,99538.16
2022-10-10T06:09:21.224Z,99530.09
2022-10-10T06:11:50.267Z,99528.72
2022-10-10T06:14:19.298Z,99526.81
2022-10-10T06:16:48.352Z,99520.50
2022-10-10T06:19:18.692Z,99522.78
2022-10-10T06:21:47.727Z,99524.25
2022-10-10T06:24:16.709Z,99534.09
2022-10-10T06:26:45.746Z,99535.44
2022-10-10T06:29:14.811Z,99535.13
2022-10-10T06:31:43.908Z,99537.13
2022-10-10T06:34:12.907Z,99543.78
2022-10-10T06:36:43.317Z,99535.25
2022-10-10T06:39:12.528Z,99539.69
2022-10-10T06:41:41.526Z,99533.91
2022-10-10T06:44:13.087Z,99536.97
2022-10-10T06:46:42.082Z,99536.66
2022-10-10T06:49:11.268Z,99547.09
2022-10-10T06:51:42.269Z,99538.59
2022-10-10T06:54:12.109Z,99545.13
2022-10-10T06:56:41.207Z,99544.56
2022-10-10T06:59:10.313Z,99561.09
2022-10-10T07:01:39.392Z,99563.00
2022-10-10T07:04:08.508Z,99557.91
2022-10-10T07:06:38.489Z,99561.50
2022-10-10T07:09:09.053Z,99561.50
2022-10-10T07:11:38.098Z,99567.53
2022-10-10T07:14:07.162Z,99570.34
2022-10-10T07:16:36.474Z,99570.94
2022-10-10T07:19:06.208Z,99572.28
2022-10-10T07:21:35.247Z,99574.97
2022-10-10T07:24:04.362Z,99577.91
2022-10-10T07:26:38.216Z,99571.22
2022-10-10T07:31:50.633Z,99577.06
2022-10-10T07:34:19.661Z,99587.03
2022-10-10T07:36:50.409Z,99591.56
2022-10-10T07:39:21.197Z,99592.91
2022-10-10T07:41:52.218Z,99591.66
2022-10-10T07:44:21.968Z,99600.88
2022-10-10T07:46:51.012Z,99604.81
2022-10-10T07:49:20.028Z,99597.53
2022-10-10T07:51:49.373Z,99593.13
2022-10-10T07:54:18.475Z,99585.31
2022-10-10T07:57:39.725Z,99601.63
2022-10-10T08:00:11.409Z,99592.56
2022-10-10T08:02:43.270Z,99578.28
2022-10-10T08:05:12.729Z,99593.19
2022-10-10T08:07:41.744Z,99593.09
2022-10-10T08:10:12.277Z,99597.78
2022-10-10T08:12:42.703Z,99596.06
2022-10-10T08:17:46.782Z,99586.97
2022-10-10T08:20:15.883Z,99583.94
2022-10-10T08:22:44.940Z,99585.88
2022-10-10T08:25:14.022Z,99580.63
2022-10-10T08:27:44.485Z,99577.81
2022-10-10T08:30:14.593Z,99580.13
2022-10-10T08:32:43.615Z,99581.38
2022-10-10T08:35:12.621Z,99581.63
2022-10-10T08:37:41.665Z,99577.09
2022-10-10T08:40:14.124Z,99572.31
2022-10-10T08:42:52.984Z,99579.75
2022-10-10T08:45:25.772Z,99574.38
2022-10-10T08:47:59.441Z,99564.00
2022-10-10T08:50:32.608Z,99571.69
2022-10-10T08:53:07.308Z,99559.44
2022-10-10T08:55:39.975Z,99568.91
2022-10-10T08:58:20.060Z,99557.13
2022-10-10T09:00:56.203Z,99561.63
2022-10-10T09:03:32.307Z,99560.56
2022-10-10T09:06:30.384Z,99563.97
2022-10-10T09:09:11.260Z,99562.66
2022-10-10T09:12:00.287Z,99555.53
2022-10-10T09:14:39.948Z,99552.78
2022-10-10T09:17:27.968Z,99557.44
2022-10-10T09:20:10.646Z,99549.97
2022-10-10T09:22:53.046Z,99559.06
2022-10-10T09:25:27.107Z,99555.25
2022-10-10T09:28:03.871Z,99554.06
2022-10-10T09:30:39.045Z,99553.91
2022-10-10T09:33:20.252Z,99552.41
2022-10-10T09:35:51.221Z,99545.38
2022-10-10T09:38:33.432Z,99540.94
2022-10-10T09:41:09.093Z,99542.50
2022-10-10T09:43:40.561Z,99540.09
2022-10-10T09:46:11.031Z,99535.59
2022-10-10T09:48:42.829Z,99546.38
2022-10-10T09:51:17.030Z,99536.00
2022-10-10T09:53:47.708Z,99530.81
2022-10-10T09:56:21.377Z,99532.13
2022-10-10T09:58:52.806Z,99541.66
2022-10-10T10:01:26.531Z,99540.59
2022-10-10T10:04:28.439Z,99551.31
2022-10-10T10:07:12.573Z,99539.00
2022-10-10T10:09:41.692Z,99542.75
2022-10-10T10:12:12.892Z,99542.25
2022-10-10T10:14:42.227Z,99546.28
2022-10-10T10:17:15.760Z,99543.94
2022-10-10T10:19:47.959Z,99541.66
2022-10-10T10:22:33.269Z,99546.47
2022-10-10T10:25:31.769Z,99536.44
2022-10-10T10:28:21.977Z,99538.03
2022-10-10T10:30:54.021Z,99541.97
2022-10-10T10:33:42.335Z,99548.44
2022-10-10T10:36:28.853Z,99542.25
2022-10-10T10:39:05.079Z,99546.59
2022-10-10T10:41:43.566Z,99544.69
2022-10-10T10:44:28.364Z,99537.28
2022-10-10T10:47:16.248Z,99537.94
2022-10-10T10:50:16.300Z,99542.56
2022-10-10T10:52:58.222Z,99544.41
2022-10-10T10:55:39.097Z,99544.19
2022-10-10T10:59:09.823Z,99550.81
2022-10-10T11:05:25.013Z,99545.63
2022-10-10T11:07:54.322Z,99548.31
2022-10-10T11:10:34.586Z,99543.00
2022-10-10T11:13:14.307Z,99543.97
2022-10-10T11:16:05.291Z,99544.06
2022-10-10T11:18:39.907Z,99544.41
2022-10-10T11:21:17.704Z,99543.34
2022-10-10T11:23:52.459Z,99547.03
2022-10-10T11:26:25.881Z,99531.28
2022-10-10T11:29:01.120Z,99534.28
2022-10-10T11:31:38.898Z,99541.22
2022-10-10T11:34:14.379Z,99540.59
2022-10-10T11:36:47.139Z,99536.06
2022-10-10T11:39:21.405Z,99540.78
2022-10-10T11:41:55.536Z,99541.56
2022-10-10T11:44:31.451Z,99539.06
2022-10-10T11:47:08.573Z,99536.28
2022-10-10T11:49:47.116Z,99537.22
2022-10-10T11:52:38.976Z,99546.13
2022-10-10T11:55:16.149Z,99541.31
2022-10-10T11:57:53.735Z,99540.03
2022-10-10T12:00:22.966Z,99534.56
2022-10-10T12:02:58.672Z,99527.38
2022-10-10T12:05:32.816Z,99531.75
2022-10-10T12:08:18.151Z,99528.78
2022-10-10T12:10:52.504Z,99521.28
2022-10-10T12:13:30.245Z,99531.72
2022-10-10T12:16:04.816Z,99533.84
2022-10-10T12:18:43.244Z,99530.81
2022-10-10T12:21:16.469Z,99537.00
2022-10-10T12:23:50.410Z,99519.16
2022-10-10T12:26:24.418Z,99525.22
2022-10-10T12:29:03.225Z,99514.75
2022-10-10T12:31:37.303Z,99525.97
2022-10-10T12:34:16.117Z,99515.44
2022-10-10T12:37:22.456Z,99518.66
2022-10-10T12:40:20.256Z,99511.72
2022-10-10T12:43:24.207Z,99505.59
2022-10-10T12:46:26.526Z,99511.44
2022-10-10T12:49:16.536Z,99510.78
2022-10-10T12:51:59.300Z,99511.38
2022-10-10T12:54:33.915Z,99506.31
2022-10-10T12:57:17.884Z,99514.94
2022-10-10T12:59:47.310Z,99511.63
2022-10-10T13:02:22.759Z,99511.94
2022-10-10T13:04:55.416Z,99511.44
2022-10-10T13:07:25.934Z,99516.28
2022-10-10T13:10:06.193Z,99510.00
2022-10-10T13:12:36.854Z,99508.72
2022-10-10T13:15:20.912Z,99505.91
2022-10-10T13:17:49.879Z,99504.63
2022-10-10T13:20:32.780Z,99506.63
2022-10-10T13:23:05.932Z,99507.81
2022-10-10T13:25:35.992Z,99513.69
2022-10-10T13:28:16.475Z,99507.44
2022-10-10T13:30:46.270Z,99508.03
2022-10-10T13:33:18.774Z,99504.41
2022-10-10T13:35:49.246Z,99503.13
2022-10-10T13:38:24.436Z,99517.16
2022-10-10T13:40:53.874Z,99510.59
2022-10-10T13:43:24.320Z,99504.19
2022-10-10T13:45:59.383Z,99500.56
2022-10-10T13:48:40.935Z,99508.28
2022-10-10T13:51:12.476Z,99506.56
2022-10-10T13:53:53.845Z,99510.25
2022-10-10T13:56:28.220Z,99508.41
2022-10-10T13:59:08.632Z,99509.97
2022-10-10T14:01:40.824Z,99506.25
2022-10-10T14:04:20.457Z,99517.03
2022-10-10T14:06:57.097Z,99519.69
2022-10-10T14:09:32.034Z,99512.81
2022-10-10T14:12:04.357Z,99507.81
2022-10-10T14:14:45.419Z,99510.47
2022-10-10T14:17:15.044Z,99515.28
2022-10-10T14:19:45.739Z,99507.44
2022-10-10T14:22:15.727Z,99499.00
2022-10-10T14:24:44.806Z,99504.28
2022-10-10T14:27:23.317Z,99508.63
2022-10-10T14:29:55.741Z,99506.69
2022-10-10T14:32:25.584Z,99498.22
2022-10-10T14:34:54.651Z,99504.63
2022-10-10T14:37:27.688Z,99509.13
2022-10-10T14:39:57.202Z,99509.41
2022-10-10T14:42:27.029Z,99505.66
2022-10-10T14:44:57.351Z,99501.97
2022-10-10T14:47:26.868Z,99506.47
2022-10-10T14:49:57.365Z,99501.16
2022-10-10T14:52:26.462Z,99499.59
2022-10-10T14:54:55.422Z,99495.38
2022-10-10T14:57:24.452Z,99494.63
2022-10-10T14:59:53.394Z,99494.09
2022-10-10T15:02:23.874Z,99500.50
2022-10-10T15:04:52.956Z,99500.50
2022-10-10T15:07:21.976Z,99498.94
2022-10-10T15:12:44.616Z,99496.19
2022-10-10T15:15:15.401Z,99491.19
2022-10-10T15:17:46.418Z,99500.69
2022-10-10T15:20:15.490Z,99493.53
2022-10-10T15:22:46.022Z,99505.88
2022-10-10T15:25:15.098Z,99504.31
2022-10-10T15:27:44.077Z,99489.22
2022-10-10T15:30:14.937Z,99486.88
2022-10-10T15:32:45.554Z,99492.97
2022-10-10T15:35:17.988Z,99492.16
2022-10-10T15:37:47.833Z,99492.47
2022-10-10T15:40:20.402Z,99490.09
2022-10-10T15:42:50.879Z,99495.69
2022-10-10T15:45:50.979Z,99502.34
2022-10-10T15:48:11.302Z,99497.44
2022-10-10T15:50:43.741Z,99505.47
2022-10-10T15:53:13.278Z,99503.69
2022-10-10T15:55:46.880Z,99519.94
2022-10-10T15:58:16.945Z,99517.38
2022-10-10T16:00:46.163Z,99524.63
2022-10-10T16:03:16.741Z,99528.13
2022-10-10T16:05:45.845Z,99530.09
2022-10-10T16:08:14.930Z,99535.47
2022-10-10T16:10:44.952Z,99537.09
2022-10-10T16:13:13.955Z,99534.56
2022-10-10T16:15:42.919Z,99539.44
2022-10-10T16:18:11.983Z,99540.31
2022-10-10T16:20:42.343Z,99531.66
2022-10-10T16:23:11.340Z,99537.53
2022-10-10T16:25:40.384Z,99540.72
2022-10-10T16:28:09.517Z,99542.38
2022-10-10T16:30:38.709Z,99535.56
2022-10-10T16:33:07.724Z,99544.06
2022-10-10T16:35:38.392Z,99549.44
2022-10-10T16:38:08.732Z,99541.59
2022-10-10T16:40:37.965Z,99542.94
2022-10-10T16:43:07.229Z,99549.09
2022-10-10T16:45:42.911Z,99549.16
2022-10-10T16:48:12.360Z,99554.50
2022-10-10T16:50:42.585Z,99554.88
2022-10-10T16:53:13.026Z,99576.38
2022-10-10T16:55:43.388Z,99576.69
2022-10-10T16:58:12.419Z,99582.81
2022-10-10T17:00:43.909Z,99577.59
2022-10-10T17:03:12.940Z,99575.00
2022-10-10T17:05:41.937Z,99580.34
2022-10-10T17:08:12.658Z,99580.13
2022-10-10T17:10:43.996Z,99584.38
2022-10-10T17:13:12.997Z,99576.25
2022-10-10T17:15:43.161Z,99571.81
2022-10-10T17:18:12.203Z,99579.50
2022-10-10T17:20:42.640Z,99575.84
2022-10-10T17:23:13.568Z,99573.28
2022-10-10T17:25:43.375Z,99582.81
2022-10-10T17:28:13.520Z,99591.59
2022-10-10T17:30:45.595Z,99585.59
2022-10-10T17:33:16.739Z,99590.91
2022-10-10T17:35:48.456Z,99584.59
2022-10-10T17:38:38.355Z,99575.94
2022-10-10T17:41:10.160Z,99571.22
2022-10-10T17:43:39.391Z,99583.09
2022-10-10T17:46:33.215Z,99583.13
2022-10-10T17:49:01.580Z,99590.84
2022-10-10T17:51:30.742Z,99591.88
2022-10-10T17:54:02.918Z,99596.38
2022-10-10T17:56:32.462Z,99591.16
2022-10-10T17:59:02.033Z,99593.78
2022-10-10T18:01:49.664Z,99624.69
2022-10-10T18:04:37.249Z,99666.66
2022-10-10T18:07:24.498Z,99679.91
2022-10-10T18:10:13.317Z,99699.72
2022-10-10T18:13:02.665Z,99694.75
2022-10-10T18:16:05.898Z,99709.03
2022-10-10T18:18:54.363Z,99698.50
2022-10-10T18:21:41.956Z,99681.16
2022-10-10T18:24:29.495Z,99677.19
2022-10-10T18:27:18.135Z,99671.16
2022-10-10T18:30:06.643Z,99677.03
2022-10-10T18:32:54.091Z,99673.41
2022-10-10T18:35:42.711Z,99685.59
2022-10-10T18:38:30.010Z,99683.75
2022-10-10T18:41:20.180Z,99707.97
2022-10-10T18:44:12.952Z,99714.31
2022-10-10T18:47:00.240Z,99714.31
2022-10-10T18:49:47.578Z,99693.00
2022-10-10T18:52:35.185Z,99698.19
2022-10-10T18:55:22.742Z,99699.28
2022-10-10T18:58:10.405Z,99705.56
2022-10-10T19:01:02.562Z,99697.91
2022-10-10T19:03:51.096Z,99707.91
2022-10-10T19:06:40.834Z,99686.84
2022-10-10T19:09:28.404Z,99699.22
2022-10-10T19:12:15.859Z,99717.66
2022-10-10T19:15:03.206Z,99717.66
2022-10-10T19:17:52.255Z,99714.78
2022-10-10T19:20:40.132Z,99720.03
2022-10-10T19:23:27.712Z,99725.84
2022-10-10T19:26:17.060Z,99723.97
2022-10-10T19:29:07.564Z,99715.81
2022-10-10T19:31:56.040Z,99720.81
2022-10-10T19:34:45.629Z,99723.16
2022-10-10T19:37:33.158Z,99738.69
2022-10-10T19:40:20.557Z,99752.94
2022-10-10T19:43:07.922Z,99757.66
2022-10-10T19:45:55.392Z,99756.91
2022-10-10T19:48:43.078Z,99761.63
2022-10-10T19:51:31.989Z,99770.84
2022-10-10T19:54:19.548Z,99757.44
2022-10-10T19:57:07.155Z,99776.66
2022-10-10T19:59:54.761Z,99809.03
2022-10-10T20:02:43.897Z,99827.75
2022-10-10T20:05:31.813Z,99807.97
2022-10-10T20:08:21.220Z,99819.56
2022-10-10T20:11:09.207Z,99800.09
2022-10-10T20:13:57.464Z,99805.63
2022-10-10T20:16:45.113Z,99808.78
2022-10-10T20:19:32.688Z,99816.16
2022-10-10T20:22:20.455Z,99825.06
2022-10-10T20:25:09.832Z,99823.50
2022-10-10T20:27:57.094Z,99817.16
2022-10-10T20:30:48.452Z,99810.34
2022-10-10T20:33:36.393Z,99809.28
2022-10-10T20:36:26.034Z,99812.97
2022-10-10T20:39:15.142Z,99825.06
2022-10-10T20:42:04.344Z,99823.53
2022-10-10T20:44:51.781Z,99835.59
2022-10-10T20:47:39.457Z,99839.31
2022-10-10T20:50:26.839Z,99846.13
2022-10-10T20:53:14.489Z,99858.75
2022-10-10T20:56:06.173Z,99862.44
2022-10-10T20:58:56.533Z,99867.16
2022-10-10T21:01:45.723Z,99858.75
2022-10-10T21:04:33.451Z,99861.38
2022-10-10T21:07:22.127Z,99861.13
2022-10-10T21:10:10.759Z,99858.25
2022-10-10T21:12:58.244Z,99869.00
2022-10-10T21:15:49.169Z,99875.06
2022-10-10T21:18:37.192Z,99877.91
2022-10-10T21:21:25.103Z,99884.50
2022-10-10T21:24:13.410Z,99882.38
2022-10-10T21:27:00.873Z,99875.25
2022-10-10T21:29:48.132Z,99881.31
2022-10-10T21:32:36.884Z,99888.16
2022-10-10T21:35:24.622Z,99895.03
2022-10-10T21:38:12.410Z,99905.53
2022-10-10T21:41:06.684Z,99897.66
2022-10-10T21:43:56.887Z,99907.91
2022-10-10T21:46:44.847Z,99910.28
2022-10-10T21:49:34.388Z,99912.38
2022-10-10T21:52:21.878Z,99912.38
2022-10-10T21:55:10.466Z,99925.50
2022-10-10T21:57:57.937Z,99920.78
2022-10-10T22:00:45.743Z,99920.25
2022-10-10T22:03:33.029Z,99916.56
2022-10-10T22:06:24.329Z,99918.13
2022-10-10T22:09:11.806Z,99924.19
2022-10-10T22:11:59.170Z,99920.78
2022-10-10T22:14:46.447Z,99932.34
2022-10-10T22:17:33.980Z,99934.97
2022-10-10T22:20:22.072Z,99931.53
2022-10-10T22:23:10.605Z,99932.59
2022-10-10T22:25:58.182Z,99946.56
2022-10-10T22:28:46.530Z,99942.06
2022-10-10T22:31:35.667Z,99943.13
2022-10-10T22:34:23.197Z,99943.13
2022-10-10T22:37:10.609Z,99950.72
2022-10-10T22:39:59.305Z,99953.84
2022-10-10T22:42:46.760Z,99955.97
2022-10-10T22:45:35.119Z,99957.28
2022-10-10T22:48:22.367Z,99961.75
2022-10-10T22:51:14.035Z,99970.69
2022-10-10T22:54:01.564Z,99960.44
2022-10-10T22:56:50.961Z,99969.09
2022-10-10T22:59:38.884Z,99973.31
2022-10-10T23:02:26.513Z,99972.00
2022-10-10T23:05:13.918Z,99978.06
2022-10-10T23:08:01.093Z,99979.63
2022-10-10T23:10:48.452Z,99983.84
2022-10-10T23:13:37.431Z,99976.75
2022-10-10T23:16:25.444Z,99977.00
2022-10-10T23:19:12.810Z,99974.09
2022-10-10T23:22:00.318Z,99989.09
2022-10-10T23:24:47.600Z,99993.81
2022-10-10T23:27:34.881Z,99984.34
2022-10-10T23:30:23.895Z,99991.19
2022-10-10T23:33:12.243Z,99988.53
2022-10-10T23:36:00.902Z,99989.59
2022-10-10T23:38:48.636Z,99986.41
2022-10-10T23:41:35.981Z,99990.88
2022-10-10T23:44:23.415Z,99997.41
2022-10-10T23:47:12.951Z,99998.47
2022-10-10T23:50:00.815Z,100004.22
2022-10-10T23:52:48.393Z,100015.81
2022-10-10T23:55:36.116Z,100006.09
2022-10-10T23:58:23.812Z,100012.66
